Time;durP1;ratioP1;P1;durP2;ratioP2;P2;SDS_P1;SDS_P2;PMS_P1;PMS_P2;Temp;Humidity;BMP_temperature;BMP_pressure;BME280_temperature;BME280_humidity;BME280_pressure;Samples;Min_cycle;Max_cycle;Signal;HPM_P1;HPM_P2
2024/01/02 00:00:16;;;;;;;;;;;;;;;10.75;54.09;96712.25;4250637;27;5678;-65
2024/01/02 00:02:19;;;;;;;;;;;;;;;10.72;53.81;96710.00;4251087;27;5661;-64
2024/01/02 00:04:24;;;;;;;;;;;;;;;10.70;53.96;96701.47;4253115;27;5594;-64
2024/01/02 00:06:27;;;;;;;;;;;;;;;10.69;54.17;96705.13;4265302;27;5622;-64
2024/01/02 00:08:31;;;;;;;;;;;;;;;10.71;53.78;96703.91;4250979;27;5698;-64
2024/01/02 00:10:34;;;;;;;;;;;;;;;10.69;52.83;96713.84;4254812;27;5568;-64
2024/01/02 00:12:35;;;;;;;;;;;;;;;10.64;52.82;96694.28;4255329;27;5622;-65
2024/01/02 00:14:38;;;;;;;;;;;;;;;10.63;53.12;96679.44;4251007;27;5617;-65
2024/01/02 00:16:41;;;;;;;;;;;;;;;10.61;53.17;96676.19;4250954;27;5705;-67
2024/01/02 00:18:44;;;;;;;;;;;;;;;10.60;53.37;96687.78;4259787;27;5594;-63
2024/01/02 00:20:49;;;;;;;;;;;;;;;10.60;53.31;96693.88;4250061;27;5781;-64
2024/01/02 00:22:51;;;;;;;;;;;;;;;10.60;53.35;96703.63;4245524;27;5706;-64
2024/01/02 00:24:54;;;;;;;;;;;;;;;10.60;53.54;96703.63;4258399;27;5665;-64
2024/01/02 00:26:57;;;;;;;;;;;;;;;10.61;53.37;96702.63;4263795;27;5564;-63
2024/01/02 00:28:59;;;;;;;;;;;;;;;10.61;53.18;96689.41;4250775;27;5514;-63
2024/01/02 00:31:02;;;;;;;;;;;;;;;10.60;53.01;96693.88;4257747;27;5594;-64
2024/01/02 00:33:05;;;;;;;;;;;;;;;10.60;52.86;96683.31;4249676;27;5630;-65
2024/01/02 00:35:09;;;;;;;;;;;;;;;10.60;52.69;96682.50;4252089;27;5570;-64
2024/01/02 00:37:13;;;;;;;;;;;;;;;10.61;52.40;96676.19;4249692;27;5598;-65
2024/01/02 00:39:16;;;;;;;;;;;;;;;10.56;52.37;96676.78;4254234;27;6303;-64
2024/01/02 00:41:19;;;;;;;;;;;;;;;10.54;52.51;96659.50;4249741;27;5915;-65
2024/01/02 00:43:22;;;;;;;;;;;;;;;10.51;52.50;96658.03;4249624;27;5615;-64
2024/01/02 00:45:25;;;;;;;;;;;;;;;10.50;52.62;96656.41;4249681;27;5797;-64
2024/01/02 00:47:28;;;;;;;;;;;;;;;10.47;52.74;96662.91;4250266;27;5190;-64
2024/01/02 00:49:31;;;;;;;;;;;;;;;10.46;52.33;96645.41;4253426;27;5690;-65
2024/01/02 00:51:34;;;;;;;;;;;;;;;10.47;52.44;96640.94;4252747;27;5687;-64
2024/01/02 00:53:39;;;;;;;;;;;;;;;10.48;52.17;96646.03;4256373;27;5563;-65
2024/01/02 00:55:41;;;;;;;;;;;;;;;10.49;52.20;96639.72;4252976;27;5664;-64
2024/01/02 00:57:44;;;;;;;;;;;;;;;10.50;52.14;96641.38;4255630;27;6375;-64
2024/01/02 00:59:47;;;;;;;;;;;;;;;10.52;52.20;96624.50;4249698;27;5652;-65
2024/01/02 01:01:49;;;;;;;;;;;;;;;10.48;52.26;96616.97;4257313;27;5660;-65
2024/01/02 01:03:52;;;;;;;;;;;;;;;10.47;52.21;96623.25;4255714;27;5836;-64
2024/01/02 01:05:55;;;;;;;;;;;;;;;10.46;52.06;96619.00;4249604;27;5487;-64
2024/01/02 01:07:58;;;;;;;;;;;;;;;10.47;52.10;96625.91;4258946;27;5680;-64
2024/01/02 01:10:03;;;;;;;;;;;;;;;10.47;52.34;96625.91;4263332;27;5619;-64
2024/01/02 01:12:06;;;;;;;;;;;;;;;10.50;52.09;96620.22;4252723;27;5796;-64
2024/01/02 01:14:09;;;;;;;;;;;;;;;10.53;52.47;96621.66;4258708;27;5602;-64
2024/01/02 01:16:12;;;;;;;;;;;;;;;10.55;52.46;96619.66;4252530;27;5673;-64
2024/01/02 01:18:15;;;;;;;;;;;;;;;10.57;52.63;96614.16;4252796;27;5691;-64
2024/01/02 01:20:18;;;;;;;;;;;;;;;10.58;52.28;96605.22;4256436;27;5687;-65
2024/01/02 01:22:21;;;;;;;;;;;;;;;10.54;52.57;96607.44;4260116;27;5579;-64
2024/01/02 01:24:24;;;;;;;;;;;;;;;10.59;52.40;96606.84;4253460;27;5611;-64
2024/01/02 01:26:28;;;;;;;;;;;;;;;10.61;52.78;96594.25;4262045;27;5659;-63
2024/01/02 01:28:31;;;;;;;;;;;;;;;10.62;52.58;96596.69;4258463;27;5738;-63
2024/01/02 01:30:34;;;;;;;;;;;;;;;10.62;52.85;96590.56;4252935;27;5586;-65
2024/01/02 01:32:37;;;;;;;;;;;;;;;10.63;53.04;96597.50;4256259;27;5662;-64
2024/01/02 01:34:41;;;;;;;;;;;;;;;10.62;53.14;96596.69;4252666;27;5823;-64
2024/01/02 01:36:44;;;;;;;;;;;;;;;10.63;52.88;96597.50;4252563;27;5605;-64
2024/01/02 01:38:47;;;;;;;;;;;;;;;10.65;52.94;96603.41;4256351;27;5563;-64
2024/01/02 01:40:49;;;;;;;;;;;;;;;10.66;53.10;96608.50;4267479;27;5547;-63
2024/01/02 01:42:54;;;;;;;;;;;;;;;10.68;53.19;96603.03;4260536;27;5618;-64
2024/01/02 01:44:57;;;;;;;;;;;;;;;10.69;53.45;96599.34;4252260;27;5687;-64
2024/01/02 01:47:00;;;;;;;;;;;;;;;10.68;53.15;96601.19;4252565;27;6368;-65
2024/01/02 01:49:03;;;;;;;;;;;;;;;10.69;53.12;96612.56;4251985;27;6343;-64
2024/01/02 01:51:08;;;;;;;;;;;;;;;10.69;53.44;96602.00;4260379;27;6264;-64
2024/01/02 01:53:11;;;;;;;;;;;;;;;10.70;53.28;96612.38;4251948;27;5606;-65
2024/01/02 01:55:14;;;;;;;;;;;;;;;10.70;53.64;96601.00;4251976;27;5660;-64
2024/01/02 01:57:20;;;;;;;;;;;;;;;10.70;53.75;96607.09;4261063;27;5108;-64
2024/01/02 01:59:24;;;;;;;;;;;;;;;10.71;53.65;96602.63;4257797;27;5822;-64
2024/01/02 02:01:29;;;;;;;;;;;;;;;10.72;53.56;96604.25;4251847;27;5670;-64
2024/01/02 02:03:33;;;;;;;;;;;;;;;10.71;53.67;96605.25;4252386;27;5633;-65
2024/01/02 02:05:36;;;;;;;;;;;;;;;10.70;53.81;96608.91;4255505;27;5641;-64
2024/01/02 02:07:40;;;;;;;;;;;;;;;10.68;53.62;96606.47;4256232;27;5663;-64
2024/01/02 02:09:43;;;;;;;;;;;;;;;10.70;53.89;96607.09;4262771;27;5582;-64
2024/01/02 02:11:46;;;;;;;;;;;;;;;10.71;53.80;96599.97;4252661;27;5701;-64
2024/01/02 02:13:48;;;;;;;;;;;;;;;10.73;53.67;96613.81;4252721;27;5570;-65
2024/01/02 02:15:53;;;;;;;;;;;;;;;10.70;53.67;96608.91;4260272;27;5590;-64
2024/01/02 02:17:55;;;;;;;;;;;;;;;10.71;53.67;96605.25;4259710;27;5658;-64
2024/01/02 02:19:58;;;;;;;;;;;;;;;10.69;53.70;96613.41;4261772;27;5586;-65
2024/01/02 02:22:01;;;;;;;;;;;;;;;10.70;53.58;96612.38;4252582;27;6280;-64
2024/01/02 02:24:07;;;;;;;;;;;;;;;10.70;53.56;96619.50;4252433;27;5603;-65
2024/01/02 02:26:10;;;;;;;;;;;;;;;10.72;53.79;96620.09;4252815;27;5590;-65
2024/01/02 02:28:14;;;;;;;;;;;;;;;10.71;53.50;96613.19;4252552;27;5684;-64
2024/01/02 02:30:16;;;;;;;;;;;;;;;10.72;53.92;96614.81;4252157;27;5840;-63
2024/01/02 02:32:19;;;;;;;;;;;;;;;10.71;53.68;96614.00;4252545;27;5828;-64
2024/01/02 02:34:22;;;;;;;;;;;;;;;10.69;53.53;96602.00;4252007;27;5574;-64
2024/01/02 02:36:25;;;;;;;;;;;;;;;10.70;53.77;96604.44;4252455;27;5691;-65
2024/01/02 02:38:27;;;;;;;;;;;;;;;10.69;54.00;96597.53;4252014;27;5788;-65
2024/01/02 02:40:31;;;;;;;;;;;;;;;10.68;53.72;96601.19;4252339;27;5684;-64
2024/01/02 02:42:34;;;;;;;;;;;;;;;10.68;53.87;96601.19;4252052;27;5644;-64
2024/01/02 02:44:37;;;;;;;;;;;;;;;10.66;53.56;96603.22;4252090;27;5610;-64
2024/01/02 02:46:40;;;;;;;;;;;;;;;10.65;53.67;96601.59;4251884;27;5716;-65
2024/01/02 02:48:43;;;;;;;;;;;;;;;10.69;53.61;96613.41;4252050;27;6368;-65
2024/01/02 02:50:46;;;;;;;;;;;;;;;10.71;53.84;96600.78;4252266;27;5846;-64
2024/01/02 02:52:49;;;;;;;;;;;;;;;10.73;53.96;96603.22;4252060;27;5668;-64
2024/01/02 02:54:52;;;;;;;;;;;;;;;10.71;54.09;96595.50;4251919;27;5590;-64
2024/01/02 02:56:56;;;;;;;;;;;;;;;10.73;53.74;96587.38;4258808;27;5657;-64
2024/01/02 02:58:59;;;;;;;;;;;;;;;10.75;54.02;96591.44;4260439;27;5574;-63
2024/01/02 03:01:04;;;;;;;;;;;;;;;10.77;53.76;96585.97;4252416;27;5630;-64
2024/01/02 03:03:07;;;;;;;;;;;;;;;10.77;53.77;96580.69;4251815;27;5634;-64
2024/01/02 03:05:09;;;;;;;;;;;;;;;10.76;53.98;96577.22;4251875;27;5579;-64
2024/01/02 03:07:12;;;;;;;;;;;;;;;10.77;54.08;96567.47;4252063;27;5591;-65
2024/01/02 03:09:15;;;;;;;;;;;;;;;10.78;54.01;96559.31;4251519;27;5641;-64
2024/01/02 03:11:18;;;;;;;;;;;;;;;10.77;54.03;96551.59;4251566;27;5619;-63
2024/01/02 03:13:22;;;;;;;;;;;;;;;10.76;53.92;96549.97;4251891;27;5701;-64
2024/01/02 03:15:26;;;;;;;;;;;;;;;10.75;53.88;96551.78;4251424;27;5578;-64
2024/01/02 03:17:29;;;;;;;;;;;;;;;10.76;53.66;96548.13;4251875;27;5602;-65
2024/01/02 03:19:32;;;;;;;;;;;;;;;10.77;53.93;96541.03;4251694;27;5578;-64
2024/01/02 03:21:35;;;;;;;;;;;;;;;10.76;53.75;96544.69;4251690;27;5754;-64
2024/01/02 03:23:38;;;;;;;;;;;;;;;10.75;53.74;96545.66;4251402;27;5685;-64
2024/01/02 03:25:41;;;;;;;;;;;;;;;10.71;53.70;96544.44;4251328;27;6273;-64
2024/01/02 03:27:44;;;;;;;;;;;;;;;10.72;53.65;96543.44;4251387;27;5588;-64
2024/01/02 03:29:48;;;;;;;;;;;;;;;10.72;53.35;96543.44;4251347;27;6003;-64
2024/01/02 03:31:51;;;;;;;;;;;;;;;10.72;53.63;96538.97;4251303;27;5603;-64
2024/01/02 03:33:54;;;;;;;;;;;;;;;10.73;53.52;96529.19;4259914;27;5570;-64
2024/01/02 03:35:57;;;;;;;;;;;;;;;10.74;53.58;96530.81;4251590;27;5649;-64
2024/01/02 03:38:00;;;;;;;;;;;;;;;10.77;53.64;96530.44;4250495;27;6306;-63
2024/01/02 03:40:04;;;;;;;;;;;;;;;10.77;53.32;96525.16;4251641;27;5583;-64
2024/01/02 03:42:06;;;;;;;;;;;;;;;10.76;53.62;96534.09;4260182;27;5656;-64
2024/01/02 03:44:09;;;;;;;;;;;;;;;10.76;53.39;96539.41;4259832;27;5604;-63
2024/01/02 03:46:14;;;;;;;;;;;;;;;10.77;53.34;96541.03;4268502;27;5576;-64
2024/01/02 03:48:16;;;;;;;;;;;;;;;10.78;53.25;96545.28;4267080;27;5650;-63
2024/01/02 03:50:19;;;;;;;;;;;;;;;10.77;53.35;96546.31;4250876;27;5720;-64
2024/01/02 03:52:22;;;;;;;;;;;;;;;10.77;52.73;96541.84;4251316;27;5586;-65
2024/01/02 03:54:25;;;;;;;;;;;;;;;10.75;52.94;96538.56;4253360;27;5586;-64
2024/01/02 03:56:28;;;;;;;;;;;;;;;10.76;53.13;96540.22;4256483;27;5582;-64
2024/01/02 03:58:31;;;;;;;;;;;;;;;10.75;52.89;96541.19;4259874;27;5594;-64
2024/01/02 04:00:35;;;;;;;;;;;;;;;10.78;53.17;96534.72;4253154;27;5655;-64
2024/01/02 04:02:40;;;;;;;;;;;;;;;10.79;53.01;96538.97;4251068;27;5570;-64
2024/01/02 04:04:43;;;;;;;;;;;;;;;10.77;53.08;96541.03;4256250;27;5564;-64
2024/01/02 04:06:46;;;;;;;;;;;;;;;10.79;52.80;96542.44;4253996;27;5681;-65
2024/01/02 04:08:48;;;;;;;;;;;;;;;10.79;53.10;96544.28;4250807;27;5852;-65
2024/01/02 04:10:51;;;;;;;;;;;;;;;10.79;52.95;96544.28;4250895;27;5621;-65
2024/01/02 04:13:14;;;;;;;;;;;;;;;10.79;52.72;96557.50;4250193;27;6403;-64
2024/01/02 04:15:27;;;;;;;;;;;;;;;10.79;52.70;96550.38;4232953;27;5659;-65
2024/01/02 04:17:36;;;;;;;;;;;;;;;10.82;52.57;96557.09;4233043;28;5589;-64
2024/01/02 04:19:41;;;;;;;;;;;;;;;10.85;52.70;96547.94;4250741;27;5638;-64
2024/01/02 04:21:43;;;;;;;;;;;;;;;10.85;52.71;96551.38;4254868;27;5633;-63
2024/01/02 04:23:46;;;;;;;;;;;;;;;10.86;52.66;96549.56;4251168;27;5698;-64
2024/01/02 04:25:49;;;;;;;;;;;;;;;10.84;52.49;96547.13;4250805;27;5594;-64
2024/01/02 04:27:54;;;;;;;;;;;;;;;10.84;52.88;96541.81;4250934;27;6331;-64
2024/01/02 04:29:56;;;;;;;;;;;;;;;10.83;52.59;96550.78;4250807;27;5705;-64
2024/01/02 04:32:00;;;;;;;;;;;;;;;10.82;52.60;96548.34;4266930;27;5834;-64
2024/01/02 04:34:02;;;;;;;;;;;;;;;10.79;52.66;96552.19;4252210;27;5684;-63
2024/01/02 04:36:08;;;;;;;;;;;;;;;10.77;52.89;96552.41;4251055;27;5594;-64
2024/01/02 04:38:11;;;;;;;;;;;;;;;10.74;52.93;96546.69;4250626;27;5586;-64
2024/01/02 04:40:14;;;;;;;;;;;;;;;10.73;53.04;96551.16;4250565;27;5630;-64
2024/01/02 04:42:16;;;;;;;;;;;;;;;10.72;53.45;96554.00;4251902;27;5719;-63
2024/01/02 04:44:19;;;;;;;;;;;;;;;10.74;53.60;96557.25;4254039;27;5646;-64
2024/01/02 04:46:23;;;;;;;;;;;;;;;10.72;53.57;96546.88;4254162;27;6272;-64
2024/01/02 04:48:25;;;;;;;;;;;;;;;10.72;53.35;96554.81;4262785;27;5877;-64
2024/01/02 04:50:28;;;;;;;;;;;;;;;10.70;53.47;96550.75;4253838;27;5595;-64
2024/01/02 04:52:32;;;;;;;;;;;;;;;10.69;53.97;96541.19;4257458;27;5568;-64
2024/01/02 04:54:34;;;;;;;;;;;;;;;10.70;53.98;96548.09;4258501;27;5606;-64
2024/01/02 04:56:37;;;;;;;;;;;;;;;10.70;54.18;96545.47;4254017;27;5696;-64
2024/01/02 04:58:40;;;;;;;;;;;;;;;10.68;54.20;96547.50;4254258;27;5662;-64
2024/01/02 05:00:43;;;;;;;;;;;;;;;10.67;54.31;96540.59;4258977;27;5732;-64
2024/01/02 05:02:46;;;;;;;;;;;;;;;10.70;54.28;96545.47;4257106;27;5618;-63
2024/01/02 05:04:50;;;;;;;;;;;;;;;10.65;54.66;96547.91;4259801;27;5688;-64
2024/01/02 05:06:53;;;;;;;;;;;;;;;10.62;54.36;96550.94;4264450;27;5586;-64
2024/01/02 05:08:57;;;;;;;;;;;;;;;10.59;54.52;96549.50;4253738;27;5693;-64
2024/01/02 05:11:00;;;;;;;;;;;;;;;10.60;55.04;96551.13;4254013;27;5749;-64
2024/01/02 05:13:03;;;;;;;;;;;;;;;10.61;55.04;96541.38;4261315;27;5700;-64
2024/01/02 05:15:07;;;;;;;;;;;;;;;10.61;55.19;96546.66;4253702;27;6222;-64
2024/01/02 05:17:11;;;;;;;;;;;;;;;10.58;55.46;96544.41;4253619;27;5594;-64
2024/01/02 05:19:14;;;;;;;;;;;;;;;10.50;55.85;96548.84;4262345;27;5568;-64
2024/01/02 05:21:17;;;;;;;;;;;;;;;10.45;55.66;96543.38;4253645;27;6275;-64
2024/01/02 05:23:20;;;;;;;;;;;;;;;10.42;55.86;96546.41;4253587;27;5658;-64
2024/01/02 05:25:25;;;;;;;;;;;;;;;10.40;55.87;96545.78;4253395;27;5721;-64
2024/01/02 05:27:27;;;;;;;;;;;;;;;10.34;56.05;96549.22;4253852;27;5788;-64
2024/01/02 05:29:30;;;;;;;;;;;;;;;10.31;56.65;96554.09;4253823;27;5589;-64
2024/01/02 05:31:33;;;;;;;;;;;;;;;10.25;56.80;96553.03;4253317;27;5763;-64
2024/01/02 05:33:36;;;;;;;;;;;;;;;10.23;56.99;96552.41;4266459;27;6708;-64
2024/01/02 05:35:39;;;;;;;;;;;;;;;10.24;57.13;96554.06;4261828;27;5591;-64
2024/01/02 05:37:42;;;;;;;;;;;;;;;10.26;57.41;96559.94;4270797;27;5841;-64
2024/01/02 05:39:45;;;;;;;;;;;;;;;10.24;57.22;96550.59;4237950;27;5616;-63
2024/01/02 05:41:49;;;;;;;;;;;;;;;10.20;57.64;96555.44;4253467;27;5703;-66
2024/01/02 05:43:52;;;;;;;;;;;;;;;10.16;57.58;96562.09;4253790;27;5578;-64
2024/01/02 05:45:54;;;;;;;;;;;;;;;10.13;58.06;96571.25;4259460;27;5670;-64
2024/01/02 05:47:57;;;;;;;;;;;;;;;10.11;58.20;96567.16;4270185;27;5247;-64
2024/01/02 05:50:00;;;;;;;;;;;;;;;10.13;57.91;96573.06;4260594;27;5564;-64
2024/01/02 05:52:04;;;;;;;;;;;;;;;10.12;57.98;96569.63;4253541;27;5095;-64
2024/01/02 05:54:07;;;;;;;;;;;;;;;10.12;58.54;96564.31;4251899;27;5677;-64
2024/01/02 05:56:11;;;;;;;;;;;;;;;10.08;58.64;96572.81;4251119;27;5586;-64
2024/01/02 05:58:15;;;;;;;;;;;;;;;10.06;58.82;96574.84;4253188;27;5669;-64
2024/01/02 06:00:19;;;;;;;;;;;;;;;10.07;58.82;96571.19;4254697;27;5637;-64
2024/01/02 06:02:22;;;;;;;;;;;;;;;10.05;59.06;96566.09;4259521;27;5689;-64
2024/01/02 06:04:25;;;;;;;;;;;;;;;10.07;59.22;96557.97;4253263;27;5602;-64
2024/01/02 06:06:27;;;;;;;;;;;;;;;10.07;59.37;96564.09;4261446;27;5594;-64
2024/01/02 06:08:31;;;;;;;;;;;;;;;10.06;59.16;96565.09;4258950;27;5574;-64
2024/01/02 06:10:33;;;;;;;;;;;;;;;10.12;59.19;96566.16;4253026;27;5727;-64
2024/01/02 06:12:37;;;;;;;;;;;;;;;10.16;59.47;96562.91;4252894;27;5710;-64
2024/01/02 06:14:41;;;;;;;;;;;;;;;10.20;59.15;96558.06;4252910;27;5575;-65
2024/01/02 06:16:44;;;;;;;;;;;;;;;10.23;59.27;96556.91;4252987;27;5613;-64
2024/01/02 06:18:47;;;;;;;;;;;;;;;10.22;59.64;96556.06;4253277;27;5594;-64
2024/01/02 06:20:51;;;;;;;;;;;;;;;10.28;59.76;96563.19;4253110;27;5848;-64
2024/01/02 06:22:53;;;;;;;;;;;;;;;10.28;59.56;96555.28;4252995;27;5685;-64
2024/01/02 06:24:56;;;;;;;;;;;;;;;10.32;59.46;96550.44;4253033;27;5779;-64
2024/01/02 06:26:59;;;;;;;;;;;;;;;10.34;59.90;96545.75;4252656;27;5885;-64
2024/01/02 06:29:02;;;;;;;;;;;;;;;10.35;59.72;96545.56;4261243;27;7006;-65
2024/01/02 06:31:06;;;;;;;;;;;;;;;10.38;59.85;96552.28;4252277;27;5571;-64
2024/01/02 06:33:09;;;;;;;;;;;;;;;10.40;60.00;96555.53;4252357;27;5629;-64
2024/01/02 06:35:12;;;;;;;;;;;;;;;10.39;60.20;96557.34;4252220;27;5586;-65
2024/01/02 06:37:15;;;;;;;;;;;;;;;10.42;59.78;96562.28;4253509;27;5579;-65
2024/01/02 06:39:18;;;;;;;;;;;;;;;10.44;60.13;96556.78;4260627;27;6323;-65
2024/01/02 06:41:22;;;;;;;;;;;;;;;10.48;60.30;96553.53;4258772;27;5071;-65
2024/01/02 06:43:25;;;;;;;;;;;;;;;10.52;60.13;96561.06;4252466;27;6354;-65
2024/01/02 06:45:28;;;;;;;;;;;;;;;10.50;60.26;96548.84;4260746;27;5673;-65
2024/01/02 06:47:33;;;;;;;;;;;;;;;10.49;60.05;96543.78;4255802;27;5559;-66
2024/01/02 06:49:36;;;;;;;;;;;;;;;10.49;60.43;96544.59;4256312;27;5609;-65
2024/01/02 06:51:39;;;;;;;;;;;;;;;10.52;60.24;96547.84;4252336;27;5713;-65
2024/01/02 06:53:42;;;;;;;;;;;;;;;10.54;60.50;96546.66;4252329;27;5699;-66
2024/01/02 06:55:45;;;;;;;;;;;;;;;10.53;60.58;96542.34;4251938;27;5827;-65
2024/01/02 06:57:47;;;;;;;;;;;;;;;10.55;60.30;96543.00;4266649;27;5560;-64
2024/01/02 06:59:51;;;;;;;;;;;;;;;10.56;60.64;96543.81;4269533;27;5798;-67
2024/01/02 07:01:54;;;;;;;;;;;;;;;10.55;60.64;96532.41;4253763;27;5699;-65
2024/01/02 07:03:58;;;;;;;;;;;;;;;10.55;60.38;96542.19;4252302;27;5578;-68
2024/01/02 07:06:02;;;;;;;;;;;;;;;10.52;60.61;96543.38;4259995;27;5771;-65
2024/01/02 07:08:06;;;;;;;;;;;;;;;10.52;60.51;96537.28;4260360;27;5055;-66
2024/01/02 07:10:10;;;;;;;;;;;;;;;10.53;60.68;96552.13;4252409;27;5575;-70
2024/01/02 07:12:13;;;;;;;;;;;;;;;10.53;60.86;96547.63;4259561;27;5575;-68
2024/01/02 07:14:16;;;;;;;;;;;;;;;10.53;61.01;96570.63;4260499;27;5761;-71
2024/01/02 07:16:19;;;;;;;;;;;;;;;10.54;61.21;96570.44;4251534;27;5606;-68
2024/01/02 07:18:22;;;;;;;;;;;;;;;10.55;60.79;96568.63;4252106;27;5602;-70
2024/01/02 07:20:26;;;;;;;;;;;;;;;10.55;61.14;96569.44;4251952;27;5690;-66
2024/01/02 07:22:29;;;;;;;;;;;;;;;10.54;61.24;96561.69;4252087;27;5578;-70
2024/01/02 07:24:34;;;;;;;;;;;;;;;10.53;60.92;96562.69;4254194;27;5574;-70
2024/01/02 07:26:36;;;;;;;;;;;;;;;10.52;61.22;96572.44;4251811;27;5570;-71
2024/01/02 07:28:39;;;;;;;;;;;;;;;10.52;61.16;96558.41;4251845;27;5701;-70
2024/01/02 07:30:42;;;;;;;;;;;;;;;10.56;61.35;96564.94;4251290;27;5633;-71
2024/01/02 07:32:45;;;;;;;;;;;;;;;10.59;61.43;96564.56;4251779;27;5591;-70
2024/01/02 07:34:47;;;;;;;;;;;;;;;10.57;61.23;96567.41;4251541;27;5586;-70
2024/01/02 07:36:52;;;;;;;;;;;;;;;10.58;61.03;96565.56;4251421;27;5645;-72
2024/01/02 07:38:55;;;;;;;;;;;;;;;10.59;61.52;96559.25;4251530;27;5587;-69
2024/01/02 07:40:58;;;;;;;;;;;;;;;10.60;61.46;96560.88;4251499;27;5594;-69
2024/01/02 07:43:00;;;;;;;;;;;;;;;10.59;61.44;96556.63;4251531;27;5670;-71
2024/01/02 07:45:03;;;;;;;;;;;;;;;10.59;61.27;96564.56;4251281;27;5876;-72
2024/01/02 07:47:06;;;;;;;;;;;;;;;10.59;61.73;96561.91;4251329;27;5665;-72
2024/01/02 07:49:09;;;;;;;;;;;;;;;10.60;61.26;96566.19;4250907;27;6423;-70
2024/01/02 07:51:11;;;;;;;;;;;;;;;10.61;61.64;96562.50;4251222;27;5570;-71
2024/01/02 07:53:19;;;;;;;;;;;;;;;10.62;61.39;96558.84;4251539;27;5716;-72
2024/01/02 07:55:24;;;;;;;;;;;;;;;10.61;61.57;96565.16;4256633;27;5576;-64
2024/01/02 07:57:28;;;;;;;;;;;;;;;10.65;61.88;96569.06;4256063;27;5617;-69
2024/01/02 07:59:31;;;;;;;;;;;;;;;10.66;61.44;96575.97;4252251;27;5685;-70
2024/01/02 08:01:33;;;;;;;;;;;;;;;10.66;61.96;96581.25;4255029;27;5681;-66
2024/01/02 08:03:36;;;;;;;;;;;;;;;10.64;61.78;96573.50;4250862;27;5574;-68
2024/01/02 08:05:38;;;;;;;;;;;;;;;10.63;61.98;96566.59;4252370;27;5630;-65
2024/01/02 08:07:41;;;;;;;;;;;;;;;10.64;62.01;96560.28;4236683;27;5609;-71
2024/01/02 08:09:45;;;;;;;;;;;;;;;10.63;61.96;96561.28;4250857;27;5586;-71
2024/01/02 08:11:47;;;;;;;;;;;;;;;10.63;61.74;96561.28;4251217;27;5574;-70
2024/01/02 08:13:51;;;;;;;;;;;;;;;10.61;62.13;96568.63;4250858;27;5078;-69
2024/01/02 08:15:54;;;;;;;;;;;;;;;10.61;61.82;96563.34;4257672;27;7615;-68
2024/01/02 08:17:57;;;;;;;;;;;;;;;10.61;62.07;96567.81;4260070;27;5615;-70
2024/01/02 08:20:00;;;;;;;;;;;;;;;10.60;62.03;96567.00;4251376;27;5582;-69
2024/01/02 08:22:03;;;;;;;;;;;;;;;10.59;61.88;96573.28;4259314;27;5567;-70
2024/01/02 08:24:07;;;;;;;;;;;;;;;10.61;62.15;96573.09;4250952;27;5843;-65
2024/01/02 08:26:13;;;;;;;;;;;;;;;10.61;62.36;96578.38;4251062;27;7648;-71
2024/01/02 08:28:18;;;;;;;;;;;;;;;10.60;62.18;96574.91;4251043;27;6935;-71
2024/01/02 08:30:21;;;;;;;;;;;;;;;10.60;62.16;96577.56;4261835;27;5674;-70
2024/01/02 08:32:24;;;;;;;;;;;;;;;10.59;62.27;96575.94;4256774;27;5721;-69
2024/01/02 08:34:26;;;;;;;;;;;;;;;10.61;62.37;96570.44;4251017;27;5706;-70
2024/01/02 08:36:29;;;;;;;;;;;;;;;10.63;62.42;96576.34;4251063;27;5649;-69
2024/01/02 08:38:33;;;;;;;;;;;;;;;10.63;62.18;96577.16;4250647;27;5594;-67
2024/01/02 08:40:36;;;;;;;;;;;;;;;10.65;62.03;96575.16;4250187;27;5828;-69
2024/01/02 08:42:41;;;;;;;;;;;;;;;10.65;62.01;96575.16;4250575;27;5633;-69
2024/01/02 08:44:45;;;;;;;;;;;;;;;10.68;62.22;96576.59;4250482;27;5642;-69
2024/01/02 08:46:47;;;;;;;;;;;;;;;10.64;62.04;96575.34;4249767;27;5629;-70
2024/01/02 08:48:50;;;;;;;;;;;;;;;10.59;61.95;96581.22;4256633;27;5573;-70
2024/01/02 08:50:53;;;;;;;;;;;;;;;10.61;62.33;96573.91;4252666;27;6276;-64
2024/01/02 08:52:58;;;;;;;;;;;;;;;10.60;62.02;96571.47;4250596;27;5578;-67
2024/01/02 08:55:02;;;;;;;;;;;;;;;10.64;62.22;96577.97;4250721;27;5599;-65
2024/01/02 08:57:05;;;;;;;;;;;;;;;10.65;62.28;96577.00;4250692;27;5563;-64
2024/01/02 08:59:10;;;;;;;;;;;;;;;10.66;62.14;96576.78;4250494;27;5633;-64
2024/01/02 09:01:13;;;;;;;;;;;;;;;10.67;62.58;96562.56;4250305;27;5603;-66
2024/01/02 09:03:16;;;;;;;;;;;;;;;10.67;62.15;96567.03;4252141;27;5695;-64
2024/01/02 09:05:18;;;;;;;;;;;;;;;10.67;62.28;96559.09;4265971;27;6371;-64
2024/01/02 09:07:21;;;;;;;;;;;;;;;10.70;62.22;96562.16;4250269;27;5586;-64
2024/01/02 09:09:24;;;;;;;;;;;;;;;10.71;62.31;96563.78;4250217;27;5686;-65
2024/01/02 09:11:26;;;;;;;;;;;;;;;10.70;62.11;96561.31;4253819;27;5591;-65
2024/01/02 09:13:30;;;;;;;;;;;;;;;10.67;62.21;96549.31;4256200;27;5621;-65
2024/01/02 09:15:35;;;;;;;;;;;;;;;10.70;62.25;96545.47;4250351;27;5621;-64
2024/01/02 09:17:38;;;;;;;;;;;;;;;10.74;62.37;96541.41;4253008;27;5634;-66
2024/01/02 09:19:42;;;;;;;;;;;;;;;10.76;62.21;96545.50;4258785;27;5582;-65
2024/01/02 09:21:45;;;;;;;;;;;;;;;10.78;62.22;96554.03;4258771;27;5641;-66
2024/01/02 09:23:48;;;;;;;;;;;;;;;10.78;62.38;96553.22;4258691;27;5657;-64
2024/01/02 09:25:52;;;;;;;;;;;;;;;10.78;62.51;96546.09;4238457;27;5590;-64
2024/01/02 09:27:58;;;;;;;;;;;;;;;10.78;62.08;96559.31;4252650;27;5677;-64
2024/01/02 09:30:04;;;;;;;;;;;;;;;10.76;62.24;96552.63;4258078;27;5594;-66
2024/01/02 09:32:11;;;;;;;;;;;;;;;10.74;62.20;96546.69;4253204;27;5590;-66
2024/01/02 09:34:14;;;;;;;;;;;;;;;10.73;62.16;96545.88;4253617;27;5630;-64
2024/01/02 09:36:17;;;;;;;;;;;;;;;10.75;62.32;96537.72;4253282;27;5625;-64
2024/01/02 09:38:20;;;;;;;;;;;;;;;10.72;62.27;96532.84;4253369;27;5742;-65
2024/01/02 09:40:39;;;;;;;;;;;;;;;10.71;62.39;96537.34;4253072;27;5586;-63
2024/01/02 09:42:53;;;;;;;;;;;;;;;10.71;62.30;96536.50;4255238;27;5579;-65
2024/01/02 09:45:03;;;;;;;;;;;;;;;10.72;62.49;96543.44;4257177;27;5697;-65
2024/01/02 09:47:17;;;;;;;;;;;;;;;10.74;62.43;96541.41;4253455;27;5697;-68
2024/01/02 09:49:27;;;;;;;;;;;;;;;10.73;62.36;96537.13;4252986;27;6385;-65
2024/01/02 09:51:44;;;;;;;;;;;;;;;10.75;62.57;96543.03;4253022;27;6280;-65
2024/01/02 09:54:12;;;;;;;;;;;;;;;10.75;62.43;96550.94;4253193;27;5579;-66
2024/01/02 09:56:20;;;;;;;;;;;;;;;10.73;62.37;96547.69;4253311;27;5653;-65
2024/01/02 09:58:32;;;;;;;;;;;;;;;10.72;62.58;96544.25;4261647;27;5773;-64
2024/01/02 10:00:47;;;;;;;;;;;;;;;10.74;62.37;96546.69;4257205;27;5575;-64
2024/01/02 10:03:22;;;;;;;;;;;;;;;10.76;62.37;96547.31;4252871;27;5585;-64
2024/01/02 10:05:43;;;;;;;;;;;;;;;10.78;62.25;96537.34;4253284;27;5575;-64
2024/01/02 10:08:01;;;;;;;;;;;;;;;10.76;62.60;96534.09;4252708;27;5716;-64
2024/01/02 10:10:11;;;;;;;;;;;;;;;10.78;62.54;96532.88;4252786;27;5649;-64
2024/01/02 10:12:25;;;;;;;;;;;;;;;10.79;62.39;96523.13;4253881;27;5582;-64
2024/01/02 10:14:34;;;;;;;;;;;;;;;10.79;62.12;96513.34;4263009;27;6367;-65
2024/01/02 10:16:39;;;;;;;;;;;;;;;10.76;61.96;96519.06;4252928;27;6323;-64
2024/01/02 10:19:00;;;;;;;;;;;;;;;10.74;62.24;96514.97;4252864;27;5654;-64
2024/01/02 10:21:14;;;;;;;;;;;;;;;10.75;62.44;96506.00;4264737;27;5772;-64
2024/01/02 10:23:27;;;;;;;;;;;;;;;10.74;62.28;96512.31;4251844;27;5575;-65
2024/01/02 10:25:31;;;;;;;;;;;;;;;10.73;62.53;96505.41;4257041;27;5824;-66
2024/01/02 10:27:42;;;;;;;;;;;;;;;10.72;62.38;96501.13;4259899;27;5696;-64
2024/01/02 10:30:00;;;;;;;;;;;;;;;10.72;62.49;96506.41;4258461;27;6276;-67
2024/01/02 10:32:07;;;;;;;;;;;;;;;10.75;62.46;96500.72;4251133;27;5589;-65
2024/01/02 10:34:27;;;;;;;;;;;;;;;10.77;62.34;96504.00;4255863;27;5576;-65
2024/01/02 10:36:36;;;;;;;;;;;;;;;10.76;62.63;96500.53;4252948;27;5560;-65
2024/01/02 10:38:48;;;;;;;;;;;;;;;10.76;62.74;96497.09;4253094;27;5597;-65
2024/01/02 10:40:59;;;;;;;;;;;;;;;10.80;62.60;96500.94;4252662;27;5840;-66
2024/01/02 10:43:25;;;;;;;;;;;;;;;10.82;63.05;96493.63;4251496;27;5682;-66
2024/01/02 10:45:34;;;;;;;;;;;;;;;10.81;63.07;96492.00;4259224;27;5575;-65
2024/01/02 10:47:52;;;;;;;;;;;;;;;10.83;62.92;96494.44;4253148;27;5706;-66
2024/01/02 10:50:00;;;;;;;;;;;;;;;10.83;62.71;96492.59;4251334;27;5495;-66
2024/01/02 10:52:10;;;;;;;;;;;;;;;10.81;62.85;96489.34;4252438;27;5725;-65
2024/01/02 10:54:19;;;;;;;;;;;;;;;10.83;63.00;96497.91;4253357;27;5594;-65
2024/01/02 10:56:37;;;;;;;;;;;;;;;10.85;62.73;96485.28;4251619;27;5710;-65